sensor_id;sensor_type;location;lat;lon;timestamp;P1;durP1;ratioP1;P2;durP2;ratioP2
54993;SDS011;40891;47.242;8.648;2023-06-26T00:01:02;7.80;;;5.50;;
54993;SDS011;40891;47.242;8.648;2023-06-26T00:03:27;6.43;;;5.28;;
54993;SDS011;40891;47.242;8.648;2023-06-26T00:05:53;9.13;;;5.50;;
54993;SDS011;40891;47.242;8.648;2023-06-26T00:08:19;6.60;;;5.35;;
54993;SDS011;40891;47.242;8.648;2023-06-26T00:10:44;7.05;;;5.45;;
54993;SDS011;40891;47.242;8.648;2023-06-26T00:13:11;6.93;;;5.50;;
54993;SDS011;40891;47.242;8.648;2023-06-26T00:15:37;8.13;;;5.70;;
54993;SDS011;40891;47.242;8.648;2023-06-26T00:18:02;8.65;;;5.45;;
54993;SDS011;40891;47.242;8.648;2023-06-26T00:20:28;7.30;;;5.43;;
54993;SDS011;40891;47.242;8.648;2023-06-26T00:22:53;6.18;;;5.20;;
54993;SDS011;40891;47.242;8.648;2023-06-26T00:25:21;6.97;;;5.47;;
54993;SDS011;40891;47.242;8.648;2023-06-26T00:27:47;7.50;;;5.38;;
54993;SDS011;40891;47.242;8.648;2023-06-26T00:30:12;8.05;;;5.15;;
54993;SDS011;40891;47.242;8.648;2023-06-26T00:32:37;6.72;;;5.28;;
54993;SDS011;40891;47.242;8.648;2023-06-26T00:35:03;6.32;;;4.93;;
54993;SDS011;40891;47.242;8.648;2023-06-26T00:37:28;8.98;;;5.30;;
54993;SDS011;40891;47.242;8.648;2023-06-26T00:39:54;6.78;;;5.80;;
54993;SDS011;40891;47.242;8.648;2023-06-26T00:42:19;8.27;;;5.55;;
54993;SDS011;40891;47.242;8.648;2023-06-26T00:44:44;7.65;;;5.13;;
54993;SDS011;40891;47.242;8.648;2023-06-26T00:47:10;8.38;;;5.70;;
54993;SDS011;40891;47.242;8.648;2023-06-26T00:49:40;6.45;;;5.40;;
54993;SDS011;40891;47.242;8.648;2023-06-26T00:52:05;6.68;;;5.65;;
54993;SDS011;40891;47.242;8.648;2023-06-26T00:54:31;6.18;;;5.28;;
54993;SDS011;40891;47.242;8.648;2023-06-26T00:56:57;7.05;;;5.47;;
54993;SDS011;40891;47.242;8.648;2023-06-26T00:59:22;6.43;;;5.63;;
54993;SDS011;40891;47.242;8.648;2023-06-26T01:01:47;7.50;;;5.72;;
54993;SDS011;40891;47.242;8.648;2023-06-26T01:04:13;7.72;;;5.68;;
54993;SDS011;40891;47.242;8.648;2023-06-26T01:06:43;6.20;;;5.35;;
54993;SDS011;40891;47.242;8.648;2023-06-26T01:09:13;7.05;;;5.78;;
54993;SDS011;40891;47.242;8.648;2023-06-26T01:11:43;7.00;;;5.30;;
54993;SDS011;40891;47.242;8.648;2023-06-26T01:14:08;7.07;;;5.68;;
54993;SDS011;40891;47.242;8.648;2023-06-26T01:16:34;8.90;;;6.43;;
54993;SDS011;40891;47.242;8.648;2023-06-26T01:19:00;6.40;;;5.47;;
54993;SDS011;40891;47.242;8.648;2023-06-26T01:21:26;6.85;;;5.53;;
54993;SDS011;40891;47.242;8.648;2023-06-26T01:24:15;8.30;;;6.03;;
54993;SDS011;40891;47.242;8.648;2023-06-26T01:26:45;7.40;;;6.00;;
54993;SDS011;40891;47.242;8.648;2023-06-26T01:29:13;7.70;;;5.47;;
54993;SDS011;40891;47.242;8.648;2023-06-26T01:31:40;9.82;;;6.43;;
54993;SDS011;40891;47.242;8.648;2023-06-26T01:34:06;5.82;;;5.20;;
54993;SDS011;40891;47.242;8.648;2023-06-26T01:36:32;6.03;;;5.32;;
54993;SDS011;40891;47.242;8.648;2023-06-26T01:38:57;6.90;;;5.60;;
54993;SDS011;40891;47.242;8.648;2023-06-26T01:41:22;8.13;;;5.47;;
54993;SDS011;40891;47.242;8.648;2023-06-26T01:44:01;7.55;;;5.72;;
54993;SDS011;40891;47.242;8.648;2023-06-26T01:46:39;6.60;;;5.70;;
54993;SDS011;40891;47.242;8.648;2023-06-26T01:52:08;7.15;;;5.22;;
54993;SDS011;40891;47.242;8.648;2023-06-26T01:54:42;8.63;;;5.90;;
54993;SDS011;40891;47.242;8.648;2023-06-26T01:57:17;8.07;;;5.72;;
54993;SDS011;40891;47.242;8.648;2023-06-26T01:59:43;7.35;;;6.00;;
54993;SDS011;40891;47.242;8.648;2023-06-26T02:02:12;8.63;;;5.82;;
54993;SDS011;40891;47.242;8.648;2023-06-26T02:04:37;8.73;;;5.57;;
54993;SDS011;40891;47.242;8.648;2023-06-26T02:07:03;7.60;;;5.78;;
54993;SDS011;40891;47.242;8.648;2023-06-26T02:09:28;9.02;;;5.70;;
54993;SDS011;40891;47.242;8.648;2023-06-26T02:11:54;7.65;;;5.95;;
54993;SDS011;40891;47.242;8.648;2023-06-26T02:14:19;9.40;;;5.82;;
54993;SDS011;40891;47.242;8.648;2023-06-26T02:16:44;7.68;;;6.07;;
54993;SDS011;40891;47.242;8.648;2023-06-26T02:19:09;8.80;;;6.45;;
54993;SDS011;40891;47.242;8.648;2023-06-26T02:21:35;7.07;;;5.80;;
54993;SDS011;40891;47.242;8.648;2023-06-26T02:24:01;7.55;;;5.78;;
54993;SDS011;40891;47.242;8.648;2023-06-26T02:26:26;7.22;;;6.20;;
54993;SDS011;40891;47.242;8.648;2023-06-26T02:28:52;7.97;;;6.72;;
54993;SDS011;40891;47.242;8.648;2023-06-26T02:31:18;9.25;;;5.88;;
54993;SDS011;40891;47.242;8.648;2023-06-26T02:33:43;9.45;;;6.72;;
54993;SDS011;40891;47.242;8.648;2023-06-26T02:36:10;7.47;;;6.68;;
54993;SDS011;40891;47.242;8.648;2023-06-26T02:38:35;7.82;;;6.57;;
54993;SDS011;40891;47.242;8.648;2023-06-26T02:41:01;7.07;;;6.10;;
54993;SDS011;40891;47.242;8.648;2023-06-26T02:43:26;8.85;;;6.40;;
54993;SDS011;40891;47.242;8.648;2023-06-26T02:45:52;11.57;;;6.70;;
54993;SDS011;40891;47.242;8.648;2023-06-26T02:48:18;8.70;;;6.65;;
54993;SDS011;40891;47.242;8.648;2023-06-26T02:50:43;6.93;;;6.18;;
54993;SDS011;40891;47.242;8.648;2023-06-26T02:53:11;7.90;;;6.65;;
54993;SDS011;40891;47.242;8.648;2023-06-26T02:55:37;7.40;;;6.63;;
54993;SDS011;40891;47.242;8.648;2023-06-26T02:58:02;8.77;;;6.78;;
54993;SDS011;40891;47.242;8.648;2023-06-26T03:00:27;8.45;;;6.60;;
54993;SDS011;40891;47.242;8.648;2023-06-26T03:02:54;8.75;;;6.45;;
54993;SDS011;40891;47.242;8.648;2023-06-26T03:05:20;10.60;;;6.53;;
54993;SDS011;40891;47.242;8.648;2023-06-26T03:07:45;8.02;;;6.53;;
54993;SDS011;40891;47.242;8.648;2023-06-26T03:10:11;10.38;;;7.00;;
54993;SDS011;40891;47.242;8.648;2023-06-26T03:12:36;8.02;;;7.10;;
54993;SDS011;40891;47.242;8.648;2023-06-26T03:15:01;7.68;;;6.13;;
54993;SDS011;40891;47.242;8.648;2023-06-26T03:17:28;15.23;;;7.40;;
54993;SDS011;40891;47.242;8.648;2023-06-26T03:19:53;7.03;;;6.32;;
54993;SDS011;40891;47.242;8.648;2023-06-26T03:22:18;8.20;;;6.05;;
54993;SDS011;40891;47.242;8.648;2023-06-26T03:24:44;10.10;;;6.95;;
54993;SDS011;40891;47.242;8.648;2023-06-26T03:27:10;7.03;;;6.03;;
54993;SDS011;40891;47.242;8.648;2023-06-26T03:29:36;8.52;;;6.88;;
54993;SDS011;40891;47.242;8.648;2023-06-26T03:32:01;8.38;;;6.70;;
54993;SDS011;40891;47.242;8.648;2023-06-26T03:34:26;9.60;;;6.43;;
54993;SDS011;40891;47.242;8.648;2023-06-26T03:36:52;8.15;;;6.57;;
54993;SDS011;40891;47.242;8.648;2023-06-26T03:39:17;8.02;;;6.93;;
54993;SDS011;40891;47.242;8.648;2023-06-26T03:41:42;8.00;;;6.25;;
54993;SDS011;40891;47.242;8.648;2023-06-26T03:44:07;10.85;;;6.30;;
54993;SDS011;40891;47.242;8.648;2023-06-26T03:46:33;7.95;;;6.50;;
54993;SDS011;40891;47.242;8.648;2023-06-26T03:48:58;7.93;;;6.45;;
54993;SDS011;40891;47.242;8.648;2023-06-26T03:51:23;7.60;;;6.35;;
54993;SDS011;40891;47.242;8.648;2023-06-26T03:53:49;7.82;;;6.55;;
54993;SDS011;40891;47.242;8.648;2023-06-26T03:56:14;10.30;;;6.88;;
54993;SDS011;40891;47.242;8.648;2023-06-26T03:58:39;8.20;;;6.75;;
54993;SDS011;40891;47.242;8.648;2023-06-26T04:01:05;10.40;;;6.80;;
54993;SDS011;40891;47.242;8.648;2023-06-26T04:03:30;7.45;;;6.47;;
54993;SDS011;40891;47.242;8.648;2023-06-26T04:05:56;9.43;;;6.90;;
54993;SDS011;40891;47.242;8.648;2023-06-26T04:08:23;10.57;;;6.43;;
54993;SDS011;40891;47.242;8.648;2023-06-26T04:10:51;10.65;;;6.72;;
54993;SDS011;40891;47.242;8.648;2023-06-26T04:13:16;6.95;;;6.22;;
54993;SDS011;40891;47.242;8.648;2023-06-26T04:15:42;8.38;;;6.72;;
54993;SDS011;40891;47.242;8.648;2023-06-26T04:18:07;9.50;;;7.00;;
54993;SDS011;40891;47.242;8.648;2023-06-26T04:20:32;10.48;;;7.47;;
54993;SDS011;40891;47.242;8.648;2023-06-26T04:23:00;8.55;;;7.45;;
54993;SDS011;40891;47.242;8.648;2023-06-26T04:25:25;8.77;;;7.20;;
54993;SDS011;40891;47.242;8.648;2023-06-26T04:27:54;8.75;;;7.65;;
54993;SDS011;40891;47.242;8.648;2023-06-26T04:30:19;12.23;;;7.97;;
54993;SDS011;40891;47.242;8.648;2023-06-26T04:32:44;9.50;;;7.75;;
54993;SDS011;40891;47.242;8.648;2023-06-26T04:35:10;9.57;;;7.40;;
54993;SDS011;40891;47.242;8.648;2023-06-26T04:37:35;9.70;;;7.57;;
54993;SDS011;40891;47.242;8.648;2023-06-26T04:40:01;9.60;;;7.63;;
54993;SDS011;40891;47.242;8.648;2023-06-26T04:42:28;11.45;;;7.70;;
54993;SDS011;40891;47.242;8.648;2023-06-26T04:44:54;7.82;;;7.03;;
54993;SDS011;40891;47.242;8.648;2023-06-26T04:47:19;8.52;;;7.25;;
54993;SDS011;40891;47.242;8.648;2023-06-26T04:49:44;12.90;;;7.65;;
54993;SDS011;40891;47.242;8.648;2023-06-26T04:52:11;9.40;;;7.70;;
54993;SDS011;40891;47.242;8.648;2023-06-26T04:54:38;8.95;;;7.25;;
54993;SDS011;40891;47.242;8.648;2023-06-26T04:57:04;9.15;;;7.05;;
54993;SDS011;40891;47.242;8.648;2023-06-26T04:59:29;9.65;;;8.30;;
54993;SDS011;40891;47.242;8.648;2023-06-26T05:01:54;13.02;;;8.40;;
54993;SDS011;40891;47.242;8.648;2023-06-26T05:04:20;9.75;;;8.15;;
54993;SDS011;40891;47.242;8.648;2023-06-26T05:06:45;10.80;;;7.93;;
54993;SDS011;40891;47.242;8.648;2023-06-26T05:09:10;11.38;;;7.75;;
54993;SDS011;40891;47.242;8.648;2023-06-26T05:11:36;8.50;;;7.57;;
54993;SDS011;40891;47.242;8.648;2023-06-26T05:14:02;11.05;;;8.25;;
54993;SDS011;40891;47.242;8.648;2023-06-26T05:16:27;9.32;;;7.53;;
54993;SDS011;40891;47.242;8.648;2023-06-26T05:18:52;8.52;;;7.57;;
54993;SDS011;40891;47.242;8.648;2023-06-26T05:21:19;8.90;;;7.00;;
54993;SDS011;40891;47.242;8.648;2023-06-26T05:23:44;9.45;;;8.40;;
54993;SDS011;40891;47.242;8.648;2023-06-26T05:26:11;10.90;;;7.72;;
54993;SDS011;40891;47.242;8.648;2023-06-26T05:28:38;9.68;;;7.45;;
54993;SDS011;40891;47.242;8.648;2023-06-26T05:31:03;9.45;;;7.80;;
54993;SDS011;40891;47.242;8.648;2023-06-26T05:33:31;10.00;;;7.70;;
54993;SDS011;40891;47.242;8.648;2023-06-26T05:36:00;9.27;;;7.88;;
54993;SDS011;40891;47.242;8.648;2023-06-26T05:38:28;10.57;;;7.57;;
54993;SDS011;40891;47.242;8.648;2023-06-26T05:40:54;12.20;;;8.35;;
54993;SDS011;40891;47.242;8.648;2023-06-26T05:43:20;12.38;;;8.55;;
54993;SDS011;40891;47.242;8.648;2023-06-26T05:45:46;8.50;;;7.43;;
54993;SDS011;40891;47.242;8.648;2023-06-26T05:48:13;10.75;;;7.65;;
54993;SDS011;40891;47.242;8.648;2023-06-26T05:50:38;10.65;;;8.05;;
54993;SDS011;40891;47.242;8.648;2023-06-26T05:53:06;10.38;;;7.15;;
54993;SDS011;40891;47.242;8.648;2023-06-26T05:55:32;9.60;;;7.45;;
54993;SDS011;40891;47.242;8.648;2023-06-26T05:57:58;9.50;;;7.65;;
54993;SDS011;40891;47.242;8.648;2023-06-26T06:00:25;9.75;;;7.07;;
54993;SDS011;40891;47.242;8.648;2023-06-26T06:02:51;8.20;;;6.65;;
54993;SDS011;40891;47.242;8.648;2023-06-26T06:05:19;10.93;;;7.00;;
54993;SDS011;40891;47.242;8.648;2023-06-26T06:07:45;13.27;;;7.00;;
54993;SDS011;40891;47.242;8.648;2023-06-26T06:10:10;11.40;;;7.45;;
54993;SDS011;40891;47.242;8.648;2023-06-26T06:12:35;10.82;;;7.68;;
54993;SDS011;40891;47.242;8.648;2023-06-26T06:15:01;9.95;;;7.15;;
54993;SDS011;40891;47.242;8.648;2023-06-26T06:17:26;8.10;;;7.00;;
54993;SDS011;40891;47.242;8.648;2023-06-26T06:19:51;10.05;;;7.22;;
54993;SDS011;40891;47.242;8.648;2023-06-26T06:22:17;11.52;;;7.30;;
54993;SDS011;40891;47.242;8.648;2023-06-26T06:24:42;11.70;;;7.05;;
54993;SDS011;40891;47.242;8.648;2023-06-26T06:27:08;10.20;;;6.90;;
54993;SDS011;40891;47.242;8.648;2023-06-26T06:29:34;15.75;;;7.43;;
54993;SDS011;40891;47.242;8.648;2023-06-26T06:31:59;8.32;;;6.75;;
54993;SDS011;40891;47.242;8.648;2023-06-26T06:34:25;8.07;;;7.22;;
54993;SDS011;40891;47.242;8.648;2023-06-26T06:36:50;12.45;;;7.55;;
54993;SDS011;40891;47.242;8.648;2023-06-26T06:39:15;11.73;;;7.75;;
54993;SDS011;40891;47.242;8.648;2023-06-26T06:41:41;9.32;;;7.75;;
54993;SDS011;40891;47.242;8.648;2023-06-26T06:44:07;12.23;;;7.90;;
54993;SDS011;40891;47.242;8.648;2023-06-26T06:46:32;11.18;;;8.18;;
54993;SDS011;40891;47.242;8.648;2023-06-26T06:48:57;11.23;;;8.43;;
54993;SDS011;40891;47.242;8.648;2023-06-26T06:51:23;9.15;;;7.68;;
54993;SDS011;40891;47.242;8.648;2023-06-26T06:53:48;10.80;;;8.27;;
54993;SDS011;40891;47.242;8.648;2023-06-26T06:56:13;8.80;;;7.60;;
54993;SDS011;40891;47.242;8.648;2023-06-26T06:58:39;10.55;;;7.85;;
54993;SDS011;40891;47.242;8.648;2023-06-26T07:01:07;10.10;;;7.45;;
54993;SDS011;40891;47.242;8.648;2023-06-26T07:03:34;9.95;;;8.00;;
54993;SDS011;40891;47.242;8.648;2023-06-26T07:05:59;11.40;;;8.20;;
54993;SDS011;40891;47.242;8.648;2023-06-26T07:08:25;9.98;;;7.35;;
54993;SDS011;40891;47.242;8.648;2023-06-26T07:10:50;9.18;;;7.43;;
54993;SDS011;40891;47.242;8.648;2023-06-26T07:13:15;8.25;;;7.38;;
54993;SDS011;40891;47.242;8.648;2023-06-26T07:15:41;9.57;;;7.22;;
54993;SDS011;40891;47.242;8.648;2023-06-26T07:18:06;12.18;;;8.50;;
54993;SDS011;40891;47.242;8.648;2023-06-26T07:20:31;10.40;;;8.27;;
54993;SDS011;40891;47.242;8.648;2023-06-26T07:22:57;9.20;;;7.88;;
54993;SDS011;40891;47.242;8.648;2023-06-26T07:25:22;10.25;;;8.15;;
54993;SDS011;40891;47.242;8.648;2023-06-26T07:27:47;12.15;;;8.32;;
54993;SDS011;40891;47.242;8.648;2023-06-26T07:30:13;11.55;;;7.63;;
54993;SDS011;40891;47.242;8.648;2023-06-26T07:32:38;14.05;;;8.00;;
54993;SDS011;40891;47.242;8.648;2023-06-26T07:35:06;9.27;;;6.82;;
54993;SDS011;40891;47.242;8.648;2023-06-26T07:37:31;9.95;;;6.57;;
54993;SDS011;40891;47.242;8.648;2023-06-26T07:39:57;7.10;;;6.35;;
54993;SDS011;40891;47.242;8.648;2023-06-26T07:42:22;8.40;;;6.28;;
54993;SDS011;40891;47.242;8.648;2023-06-26T07:44:48;6.78;;;6.13;;
54993;SDS011;40891;47.242;8.648;2023-06-26T07:47:13;7.75;;;6.10;;
54993;SDS011;40891;47.242;8.648;2023-06-26T07:49:40;9.45;;;6.28;;
54993;SDS011;40891;47.242;8.648;2023-06-26T07:52:05;9.20;;;6.57;;
54993;SDS011;40891;47.242;8.648;2023-06-26T07:54:31;7.43;;;6.53;;
54993;SDS011;40891;47.242;8.648;2023-06-26T07:56:57;9.52;;;6.70;;
54993;SDS011;40891;47.242;8.648;2023-06-26T07:59:25;9.13;;;6.60;;
54993;SDS011;40891;47.242;8.648;2023-06-26T08:01:51;8.20;;;6.50;;
54993;SDS011;40891;47.242;8.648;2023-06-26T08:04:18;7.88;;;6.68;;
54993;SDS011;40891;47.242;8.648;2023-06-26T08:06:45;7.35;;;6.25;;
54993;SDS011;40891;47.242;8.648;2023-06-26T08:09:12;10.00;;;6.38;;
54993;SDS011;40891;47.242;8.648;2023-06-26T08:11:38;7.85;;;6.68;;
54993;SDS011;40891;47.242;8.648;2023-06-26T08:14:03;8.18;;;5.97;;
54993;SDS011;40891;47.242;8.648;2023-06-26T08:16:28;16.50;;;6.20;;
54993;SDS011;40891;47.242;8.648;2023-06-26T08:18:54;10.88;;;6.63;;
54993;SDS011;40891;47.242;8.648;2023-06-26T08:21:19;8.20;;;5.82;;
54993;SDS011;40891;47.242;8.648;2023-06-26T08:23:44;14.75;;;6.97;;
54993;SDS011;40891;47.242;8.648;2023-06-26T08:26:10;7.28;;;6.28;;
54993;SDS011;40891;47.242;8.648;2023-06-26T08:28:35;19.40;;;6.85;;
54993;SDS011;40891;47.242;8.648;2023-06-26T08:31:00;10.32;;;6.60;;
54993;SDS011;40891;47.242;8.648;2023-06-26T08:33:26;7.28;;;6.50;;
54993;SDS011;40891;47.242;8.648;2023-06-26T08:35:51;8.70;;;6.20;;
54993;SDS011;40891;47.242;8.648;2023-06-26T08:38:17;7.00;;;5.85;;
54993;SDS011;40891;47.242;8.648;2023-06-26T08:40:42;9.38;;;6.10;;
54993;SDS011;40891;47.242;8.648;2023-06-26T08:43:07;13.27;;;6.43;;
54993;SDS011;40891;47.242;8.648;2023-06-26T08:45:33;7.07;;;6.30;;
54993;SDS011;40891;47.242;8.648;2023-06-26T08:47:59;8.65;;;6.55;;
54993;SDS011;40891;47.242;8.648;2023-06-26T08:50:25;7.65;;;6.22;;
54993;SDS011;40891;47.242;8.648;2023-06-26T08:55:23;14.38;;;6.82;;
54993;SDS011;40891;47.242;8.648;2023-06-26T08:57:51;9.25;;;6.25;;
54993;SDS011;40891;47.242;8.648;2023-06-26T09:00:18;12.55;;;6.25;;
54993;SDS011;40891;47.242;8.648;2023-06-26T09:02:44;11.20;;;6.00;;
54993;SDS011;40891;47.242;8.648;2023-06-26T09:05:10;8.05;;;5.60;;
54993;SDS011;40891;47.242;8.648;2023-06-26T09:07:36;8.55;;;5.90;;
54993;SDS011;40891;47.242;8.648;2023-06-26T09:10:01;8.43;;;5.72;;
54993;SDS011;40891;47.242;8.648;2023-06-26T09:12:27;7.53;;;5.95;;
54993;SDS011;40891;47.242;8.648;2023-06-26T09:14:53;7.07;;;6.10;;
54993;SDS011;40891;47.242;8.648;2023-06-26T09:17:23;9.65;;;5.97;;
54993;SDS011;40891;47.242;8.648;2023-06-26T09:20:03;6.95;;;5.57;;
54993;SDS011;40891;47.242;8.648;2023-06-26T09:22:29;7.35;;;5.45;;
54993;SDS011;40891;47.242;8.648;2023-06-26T09:24:58;7.50;;;5.90;;
54993;SDS011;40891;47.242;8.648;2023-06-26T09:27:23;6.47;;;5.88;;
54993;SDS011;40891;47.242;8.648;2023-06-26T09:29:48;6.80;;;5.90;;
54993;SDS011;40891;47.242;8.648;2023-06-26T09:32:15;7.00;;;6.10;;
54993;SDS011;40891;47.242;8.648;2023-06-26T09:34:41;9.15;;;6.20;;
54993;SDS011;40891;47.242;8.648;2023-06-26T09:37:08;7.55;;;5.55;;
54993;SDS011;40891;47.242;8.648;2023-06-26T09:39:33;7.18;;;5.70;;
54993;SDS011;40891;47.242;8.648;2023-06-26T09:41:58;10.48;;;6.25;;
54993;SDS011;40891;47.242;8.648;2023-06-26T09:44:24;6.10;;;5.50;;
54993;SDS011;40891;47.242;8.648;2023-06-26T09:46:50;6.55;;;5.95;;
54993;SDS011;40891;47.242;8.648;2023-06-26T09:49:15;8.07;;;5.65;;
54993;SDS011;40891;47.242;8.648;2023-06-26T09:51:41;7.43;;;6.22;;
54993;SDS011;40891;47.242;8.648;2023-06-26T09:54:07;6.57;;;5.88;;
54993;SDS011;40891;47.242;8.648;2023-06-26T09:56:33;9.88;;;5.72;;
54993;SDS011;40891;47.242;8.648;2023-06-26T09:59:00;9.80;;;5.82;;
54993;SDS011;40891;47.242;8.648;2023-06-26T10:01:30;6.53;;;5.32;;
54993;SDS011;40891;47.242;8.648;2023-06-26T10:03:56;8.30;;;5.93;;
54993;SDS011;40891;47.242;8.648;2023-06-26T10:06:33;8.18;;;6.10;;
54993;SDS011;40891;47.242;8.648;2023-06-26T10:09:00;7.88;;;5.60;;
54993;SDS011;40891;47.242;8.648;2023-06-26T10:11:33;7.30;;;5.60;;
54993;SDS011;40891;47.242;8.648;2023-06-26T10:14:03;13.45;;;6.18;;
54993;SDS011;40891;47.242;8.648;2023-06-26T10:16:30;7.85;;;5.78;;
54993;SDS011;40891;47.242;8.648;2023-06-26T10:18:58;7.07;;;5.82;;
54993;SDS011;40891;47.242;8.648;2023-06-26T10:21:29;7.97;;;5.53;;
54993;SDS011;40891;47.242;8.648;2023-06-26T10:23:56;7.47;;;5.88;;
54993;SDS011;40891;47.242;8.648;2023-06-26T10:26:23;7.07;;;5.88;;
54993;SDS011;40891;47.242;8.648;2023-06-26T10:28:49;7.07;;;5.97;;
54993;SDS011;40891;47.242;8.648;2023-06-26T10:31:21;8.35;;;6.00;;
54993;SDS011;40891;47.242;8.648;2023-06-26T10:33:51;6.97;;;5.82;;
54993;SDS011;40891;47.242;8.648;2023-06-26T10:36:18;7.38;;;5.65;;
54993;SDS011;40891;47.242;8.648;2023-06-26T10:38:49;6.15;;;5.65;;
54993;SDS011;40891;47.242;8.648;2023-06-26T10:41:19;6.22;;;5.20;;
54993;SDS011;40891;47.242;8.648;2023-06-26T10:43:48;6.95;;;5.65;;
54993;SDS011;40891;47.242;8.648;2023-06-26T10:46:18;5.95;;;5.28;;
54993;SDS011;40891;47.242;8.648;2023-06-26T10:48:55;5.47;;;4.95;;
54993;SDS011;40891;47.242;8.648;2023-06-26T10:51:25;7.50;;;5.75;;
54993;SDS011;40891;47.242;8.648;2023-06-26T10:53:53;6.30;;;5.32;;
54993;SDS011;40891;47.242;8.648;2023-06-26T10:56:19;8.20;;;5.28;;
54993;SDS011;40891;47.242;8.648;2023-06-26T10:58:45;6.57;;;5.68;;
54993;SDS011;40891;47.242;8.648;2023-06-26T11:03:41;6.38;;;5.70;;
54993;SDS011;40891;47.242;8.648;2023-06-26T11:06:12;5.88;;;5.13;;
54993;SDS011;40891;47.242;8.648;2023-06-26T11:08:52;6.43;;;5.40;;
54993;SDS011;40891;47.242;8.648;2023-06-26T11:11:18;6.97;;;5.25;;
54993;SDS011;40891;47.242;8.648;2023-06-26T11:13:45;8.82;;;5.20;;
54993;SDS011;40891;47.242;8.648;2023-06-26T11:16:12;10.48;;;5.80;;
54993;SDS011;40891;47.242;8.648;2023-06-26T11:18:39;7.85;;;5.03;;
54993;SDS011;40891;47.242;8.648;2023-06-26T11:21:08;5.82;;;5.22;;
54993;SDS011;40891;47.242;8.648;2023-06-26T11:23:36;6.45;;;4.78;;
54993;SDS011;40891;47.242;8.648;2023-06-26T11:26:18;6.57;;;5.45;;
54993;SDS011;40891;47.242;8.648;2023-06-26T11:28:49;5.85;;;5.25;;
54993;SDS011;40891;47.242;8.648;2023-06-26T11:33:52;7.93;;;5.53;;
54993;SDS011;40891;47.242;8.648;2023-06-26T11:36:19;5.65;;;5.07;;
54993;SDS011;40891;47.242;8.648;2023-06-26T11:38:44;6.25;;;5.22;;
54993;SDS011;40891;47.242;8.648;2023-06-26T11:41:10;7.55;;;5.65;;
54993;SDS011;40891;47.242;8.648;2023-06-26T11:43:35;5.90;;;5.30;;
54993;SDS011;40891;47.242;8.648;2023-06-26T11:46:00;5.88;;;5.28;;
54993;SDS011;40891;47.242;8.648;2023-06-26T11:48:26;5.82;;;5.28;;
54993;SDS011;40891;47.242;8.648;2023-06-26T11:50:51;6.93;;;5.28;;
54993;SDS011;40891;47.242;8.648;2023-06-26T11:53:16;6.28;;;5.65;;
54993;SDS011;40891;47.242;8.648;2023-06-26T11:55:42;6.97;;;6.05;;
54993;SDS011;40891;47.242;8.648;2023-06-26T11:58:08;6.95;;;5.65;;
54993;SDS011;40891;47.242;8.648;2023-06-26T12:00:33;6.57;;;5.40;;
54993;SDS011;40891;47.242;8.648;2023-06-26T12:02:58;7.25;;;5.63;;
54993;SDS011;40891;47.242;8.648;2023-06-26T12:05:24;5.93;;;5.43;;
54993;SDS011;40891;47.242;8.648;2023-06-26T12:07:49;8.65;;;5.38;;
54993;SDS011;40891;47.242;8.648;2023-06-26T12:10:16;7.35;;;5.22;;
54993;SDS011;40891;47.242;8.648;2023-06-26T12:12:43;6.07;;;5.47;;
54993;SDS011;40891;47.242;8.648;2023-06-26T12:15:13;5.93;;;5.32;;
54993;SDS011;40891;47.242;8.648;2023-06-26T12:17:40;6.22;;;5.50;;
54993;SDS011;40891;47.242;8.648;2023-06-26T12:20:16;7.97;;;5.40;;
54993;SDS011;40891;47.242;8.648;2023-06-26T12:22:43;5.97;;;5.18;;
54993;SDS011;40891;47.242;8.648;2023-06-26T12:25:11;6.32;;;5.70;;
54993;SDS011;40891;47.242;8.648;2023-06-26T12:27:36;5.80;;;5.20;;
54993;SDS011;40891;47.242;8.648;2023-06-26T12:30:04;7.53;;;5.53;;
54993;SDS011;40891;47.242;8.648;2023-06-26T12:32:30;6.28;;;5.68;;
54993;SDS011;40891;47.242;8.648;2023-06-26T12:34:56;8.95;;;6.15;;
54993;SDS011;40891;47.242;8.648;2023-06-26T12:37:22;8.88;;;6.25;;
54993;SDS011;40891;47.242;8.648;2023-06-26T12:39:52;7.35;;;6.43;;
54993;SDS011;40891;47.242;8.648;2023-06-26T12:42:27;9.27;;;6.57;;
54993;SDS011;40891;47.242;8.648;2023-06-26T12:44:53;8.05;;;6.32;;
54993;SDS011;40891;47.242;8.648;2023-06-26T12:47:25;7.60;;;6.20;;
54993;SDS011;40891;47.242;8.648;2023-06-26T12:49:52;11.23;;;7.07;;
54993;SDS011;40891;47.242;8.648;2023-06-26T12:52:18;9.07;;;6.43;;
54993;SDS011;40891;47.242;8.648;2023-06-26T12:54:45;11.20;;;6.70;;
54993;SDS011;40891;47.242;8.648;2023-06-26T12:57:12;9.95;;;6.65;;
54993;SDS011;40891;47.242;8.648;2023-06-26T12:59:39;9.45;;;6.38;;
54993;SDS011;40891;47.242;8.648;2023-06-26T13:02:05;7.00;;;6.30;;
54993;SDS011;40891;47.242;8.648;2023-06-26T13:04:31;9.38;;;6.70;;
54993;SDS011;40891;47.242;8.648;2023-06-26T13:06:57;8.90;;;6.07;;
54993;SDS011;40891;47.242;8.648;2023-06-26T13:09:23;8.05;;;5.90;;
54993;SDS011;40891;47.242;8.648;2023-06-26T13:11:49;10.38;;;6.68;;
54993;SDS011;40891;47.242;8.648;2023-06-26T13:14:15;6.78;;;6.03;;
54993;SDS011;40891;47.242;8.648;2023-06-26T13:16:41;8.60;;;6.32;;
54993;SDS011;40891;47.242;8.648;2023-06-26T13:19:06;9.77;;;6.70;;
54993;SDS011;40891;47.242;8.648;2023-06-26T13:21:32;8.98;;;6.32;;
54993;SDS011;40891;47.242;8.648;2023-06-26T13:23:58;15.18;;;6.70;;
54993;SDS011;40891;47.242;8.648;2023-06-26T13:26:24;11.25;;;6.75;;
54993;SDS011;40891;47.242;8.648;2023-06-26T13:28:51;6.82;;;5.88;;
54993;SDS011;40891;47.242;8.648;2023-06-26T13:31:17;10.57;;;6.22;;
54993;SDS011;40891;47.242;8.648;2023-06-26T13:33:42;7.43;;;6.40;;
54993;SDS011;40891;47.242;8.648;2023-06-26T13:36:11;11.73;;;6.65;;
54993;SDS011;40891;47.242;8.648;2023-06-26T13:38:36;8.80;;;5.85;;
54993;SDS011;40891;47.242;8.648;2023-06-26T13:41:02;10.00;;;6.50;;
54993;SDS011;40891;47.242;8.648;2023-06-26T13:43:28;7.07;;;6.35;;
54993;SDS011;40891;47.242;8.648;2023-06-26T13:45:54;7.13;;;6.43;;
54993;SDS011;40891;47.242;8.648;2023-06-26T13:48:20;6.60;;;6.00;;
54993;SDS011;40891;47.242;8.648;2023-06-26T13:50:46;6.97;;;6.28;;
54993;SDS011;40891;47.242;8.648;2023-06-26T13:53:12;11.10;;;6.53;;
54993;SDS011;40891;47.242;8.648;2023-06-26T13:55:37;7.85;;;6.20;;
54993;SDS011;40891;47.242;8.648;2023-06-26T13:58:09;9.73;;;5.55;;
54993;SDS011;40891;47.242;8.648;2023-06-26T14:00:36;9.63;;;6.20;;
54993;SDS011;40891;47.242;8.648;2023-06-26T14:03:05;6.43;;;5.82;;
54993;SDS011;40891;47.242;8.648;2023-06-26T14:05:34;7.93;;;5.72;;
54993;SDS011;40891;47.242;8.648;2023-06-26T14:08:02;12.15;;;5.38;;
54993;SDS011;40891;47.242;8.648;2023-06-26T14:10:29;6.65;;;5.95;;
54993;SDS011;40891;47.242;8.648;2023-06-26T14:12:54;6.70;;;6.07;;
54993;SDS011;40891;47.242;8.648;2023-06-26T14:15:19;10.20;;;6.10;;
54993;SDS011;40891;47.242;8.648;2023-06-26T14:17:45;7.50;;;5.90;;
54993;SDS011;40891;47.242;8.648;2023-06-26T14:20:12;10.43;;;6.25;;
54993;SDS011;40891;47.242;8.648;2023-06-26T14:22:41;6.15;;;5.55;;
54993;SDS011;40891;47.242;8.648;2023-06-26T14:25:08;7.45;;;5.72;;
54993;SDS011;40891;47.242;8.648;2023-06-26T14:27:35;7.30;;;5.68;;
54993;SDS011;40891;47.242;8.648;2023-06-26T14:30:01;8.15;;;5.15;;
54993;SDS011;40891;47.242;8.648;2023-06-26T14:32:27;7.25;;;5.43;;
54993;SDS011;40891;47.242;8.648;2023-06-26T14:34:53;8.57;;;5.75;;
54993;SDS011;40891;47.242;8.648;2023-06-26T14:37:18;6.13;;;5.53;;
54993;SDS011;40891;47.242;8.648;2023-06-26T14:39:44;7.30;;;5.43;;
54993;SDS011;40891;47.242;8.648;2023-06-26T14:42:09;8.15;;;5.30;;
54993;SDS011;40891;47.242;8.648;2023-06-26T14:44:35;6.35;;;5.07;;
54993;SDS011;40891;47.242;8.648;2023-06-26T14:47:00;8.45;;;5.60;;
54993;SDS011;40891;47.242;8.648;2023-06-26T14:49:26;8.75;;;5.78;;
54993;SDS011;40891;47.242;8.648;2023-06-26T14:51:52;11.70;;;5.90;;